»·PEaware :: N1XC KONT-KSNA

N1XC :: KONT-KSNA

FLIGHT INFORMATION

Flight Status: Arrived
Operator: Privately registered:
United States
More flights under this callsign
Pilot: Adam S. (8156)
Aircraft: CESSNA 172 SKYHAWK
(C172)
More flights by this aircraft type
Origin: KONT Ontario Intl
United States
Destination: KSNA John Wayne-Orange Co
United States
More flights between these airports :: More routes between these airports
Route: +PDZ PDZ270 V363 POXKU V8 SLI
File this flight plan on PilotEdge
Remarks: Reqest IAF Sagar
Altitude:
(Current/Filed)
6,000ft
Speed:
(Current/Filed)
140kts
Departed: 06-Jan-18 09:57 PM
Arrived: 06-Jan-18 10:31 PM
Distance/Time
Traveled:
26nm/0:34
Distance/Time
To Go:
Arrived

Flight Plot

Page will automatically refresh every two minutes.


Map Options




Map Legend


Flown Route
Filed Route
Departure Airport
Arrival Airport
Navaid (VOR, NDB)
Fix

Horizontal Profiles

Position Reports

Time Latitude Longitude Heading Altitude Ground
Speed
06-Jan-18 21:08 34.051227 -117.602943 269 940ft 0kts
06-Jan-18 21:09 34.051227 -117.602943 269 940ft 0kts
06-Jan-18 21:10 34.051227 -117.602943 269 940ft 0kts
06-Jan-18 21:11 34.051227 -117.602943 269 940ft 0kts
06-Jan-18 21:12 34.051227 -117.602943 269 940ft 0kts
06-Jan-18 21:13 34.051227 -117.602943 269 940ft 0kts
06-Jan-18 21:14 34.051227 -117.602943 269 940ft 0kts
06-Jan-18 21:15 34.051227 -117.602943 269 940ft 0kts
06-Jan-18 21:16 34.051227 -117.602943 269 940ft 0kts
06-Jan-18 21:17 34.051227 -117.602943 269 940ft 0kts
06-Jan-18 21:18 34.051227 -117.602943 269 940ft 0kts
06-Jan-18 21:19 34.051227 -117.602943 269 940ft 0kts
06-Jan-18 21:20 34.051227 -117.602943 269 940ft 0kts
06-Jan-18 21:21 34.051227 -117.602943 269 940ft 0kts
06-Jan-18 21:22 34.051227 -117.602943 269 940ft 0kts
06-Jan-18 21:23 34.051227 -117.602943 269 940ft 0kts
06-Jan-18 21:24 34.051227 -117.602943 269 940ft 0kts
06-Jan-18 21:25 34.051227 -117.602943 269 940ft 0kts
06-Jan-18 21:26 34.051227 -117.602943 269 940ft 0kts
06-Jan-18 21:27 34.051227 -117.602943 269 940ft 0kts
06-Jan-18 21:28 34.051227 -117.602943 269 940ft 0kts
06-Jan-18 21:29 34.051227 -117.602943 269 940ft 0kts
06-Jan-18 21:30 34.051227 -117.602943 269 940ft 0kts
06-Jan-18 21:31 34.051227 -117.602943 269 940ft 0kts
06-Jan-18 21:32 34.051227 -117.602943 269 940ft 0kts
06-Jan-18 21:33 34.051227 -117.602943 269 940ft 0kts
06-Jan-18 21:34 34.051227 -117.602943 269 940ft 0kts
06-Jan-18 21:35 34.051227 -117.602943 269 940ft 0kts
06-Jan-18 21:36 34.051227 -117.602943 269 940ft 0kts
06-Jan-18 21:37 34.051227 -117.602943 269 940ft 0kts
06-Jan-18 21:38 34.051227 -117.602943 269 940ft 0kts
06-Jan-18 21:39 34.051227 -117.602943 269 940ft 0kts
06-Jan-18 21:40 34.051227 -117.602943 269 940ft 0kts
06-Jan-18 21:41 34.051227 -117.602943 269 940ft 0kts
06-Jan-18 21:42 34.051227 -117.602943 269 940ft 0kts
06-Jan-18 21:43 34.051227 -117.602943 269 940ft 0kts
06-Jan-18 21:44 34.051227 -117.602943 269 940ft 0kts
06-Jan-18 21:45 34.051227 -117.602943 269 940ft 0kts
06-Jan-18 21:46 34.051227 -117.602943 269 940ft 0kts
06-Jan-18 21:47 34.051227 -117.602943 269 940ft 0kts
06-Jan-18 21:48 34.051227 -117.602943 269 940ft 0kts
06-Jan-18 21:49 34.051227 -117.602943 269 940ft 0kts
06-Jan-18 21:50 34.051227 -117.602943 269 940ft 0kts
06-Jan-18 21:51 34.051042 -117.603187 185 940ft 4kts
06-Jan-18 21:52 34.052340 -117.602861 58 940ft 10kts
06-Jan-18 21:53 34.052251 -117.602247 170 940ft 0kts
06-Jan-18 21:54 34.053841 -117.600294 88 940ft 15kts
06-Jan-18 21:55 34.053840 -117.593943 87 940ft 23kts
06-Jan-18 21:56 34.053850 -117.585821 90 940ft 22kts
06-Jan-18 21:57 34.053992 -117.582449 33 940ft 0kts
06-Jan-18 21:58 34.053992 -117.582449 33 940ft 0kts
06-Jan-18 21:59 34.053992 -117.582449 33 940ft 0kts
06-Jan-18 22:00 34.053992 -117.582449 33 940ft 0kts
06-Jan-18 22:01 34.053992 -117.582449 33 940ft 0kts
06-Jan-18 22:02 34.054980 -117.583940 266 940ft 40kts
06-Jan-18 22:03 34.054096 -117.609758 264 1581ft 94kts
06-Jan-18 22:04 34.050784 -117.639922 263 2506ft 91kts
06-Jan-18 22:05 34.047716 -117.671580 264 3262ft 97kts
06-Jan-18 22:06 34.045268 -117.703637 263 4039ft 95kts
06-Jan-18 22:07 34.033926 -117.736864 203 4023ft 125kts
06-Jan-18 22:08 34.001590 -117.752974 201 4023ft 126kts
06-Jan-18 22:09 33.968532 -117.768634 201 3995ft 128kts
06-Jan-18 22:10 33.934491 -117.780967 185 3996ft 129kts
06-Jan-18 22:11 33.900231 -117.781876 179 3995ft 120kts
06-Jan-18 22:12 33.866984 -117.781274 179 3995ft 119kts
06-Jan-18 22:13 33.846772 -117.807751 249 3918ft 121kts
06-Jan-18 22:14 33.822198 -117.807257 115 3420ft 127kts
06-Jan-18 22:15 33.836484 -117.779434 8 2992ft 121kts
06-Jan-18 22:16 33.868886 -117.778824 349 3000ft 117kts
06-Jan-18 22:17 33.893354 -117.764935 88 2948ft 116kts
06-Jan-18 22:18 33.868568 -117.749050 185 2999ft 115kts
06-Jan-18 22:19 33.837029 -117.755508 217 2993ft 116kts
06-Jan-18 22:20 33.818117 -117.787145 233 2950ft 117kts
06-Jan-18 22:21 33.793138 -117.807093 210 3239ft 99kts
06-Jan-18 22:22 33.777490 -117.834644 285 2964ft 121kts
06-Jan-18 22:23 33.802081 -117.859498 324 2974ft 117kts
06-Jan-18 22:24 33.822379 -117.887520 342 2968ft 116kts
06-Jan-18 22:25 33.849864 -117.870587 47 2973ft 116kts
06-Jan-18 22:26 33.870225 -117.840395 55 2973ft 116kts
06-Jan-18 22:27 33.887715 -117.807619 77 2969ft 117kts
06-Jan-18 22:28 33.881556 -117.770070 93 3000ft 116kts
06-Jan-18 22:29 33.873959 -117.734156 155 2996ft 116kts
06-Jan-18 22:30 33.846377 -117.748228 236 3000ft 116kts
06-Jan-18 22:31 33.828697 -117.780792 218 2984ft 115kts
06-Jan-18 22:32 33.800345 -117.799050 206 3000ft 116kts
06-Jan-18 22:33 33.767886 -117.814409 197 2376ft 131kts
06-Jan-18 22:34 33.736191 -117.830430 207 1767ft 105kts
06-Jan-18 22:35 33.708657 -117.847873 210 913ft 113kts
06-Jan-18 22:36 33.686945 -117.861616 207 261ft 72kts
06-Jan-18 22:37 33.675774 -117.869014 258 60ft 6kts

Navigation Log

Ident Type
Flight plan parsing failed, navigation log unavailable